Hailey, ID (83333)

3:54 AM MST on January 19, 2017 (GMT -0700)
Heatherlands | | Change Station
Active Advisory: Winter Storm Warning

Elev 5563 ft 43.59 °N, 114.34 °W | Updated 6 seconds ago

Light Snow
Light Snow
27.3 °F
Feels Like 27 °F
N
0.0
Wind Variable Wind from SE
Gusts 0.0 mph

Today
High -- | Low -- °F
--% Chance of Precip.
Yesterday
High -- | Low -- °F
Precip. -- in
Pressure 29.71 in
Visibility 1.8 miles
Clouds Overcast 1000 ft
Windchill 27 °F
Dew Point 22 °F
Humidity 82%
Rainfall 0.00 in
Snow Depth Not available.
8:04 AM 5:32 PM
Waning Gibbous, 55% visible
METAR KSUN 191035Z AUTO 00000KT 1 3/4SM -SN OVC010 M02/M02 A2971 RMK AO2 P0001
Pressure 29.71 in
Visibility 1.8 miles
Clouds Overcast 1000 ft
Windchill 27 °F
Dew Point 22 °F
Humidity 82%
Rainfall 0.00 in
Snow Depth Not available.
8:04 AM 5:32 PM
Waning Gibbous, 55% visible
METAR KSUN 191035Z AUTO 00000KT 1 3/4SM -SN OVC010 M02/M02 A2971 RMK AO2 P0001

Get Your Daily Forecast Email!

Thanks for signing up!

Be on the lookout for a verification email in your inbox.

You'll start receiving the daily forecast at 8 AM.

×

10-Day Weather Forecast

Almanac

Astronomy

Jan. 19, 2017 Rise Set
Actual Time
Civil Twilight
Nautical Twilight
Astronomical Twilight
Moon
Length of Visible Light
Length of Day
Tomorrow will be .
, % of the Moon is Illuminated

Today's Extremes

State Highs State Lows

Community

WunderPhotos

Upload Photos

1,962,540 photos uploaded!

WunderBlog® & News

Nearby

Air Quality

  Air Quality AQ Index Pollutant
Not available.

Snow Depth

Station Depth Elevation

Earthquake Activity

City Distance Mag. Time & Date
Minimum magnitude displayed is 2.5.

Coastal Water Temperatures

Place Temperature

Stations

Nearby Weather Stations

Station Location Temp. Windchill Dew Point Humidity Wind Precip. Elev Updated Type
                   

Watches & Warnings

Winter Storm Warning
Issued: 3:21 AM MST Jan. 19, 2017 – National Weather Service

... Winter Storm Warning remains in effect until 9 PM MST this
evening...

* impacts... moderate to heavy snowfall will accumulate on
roadways and may reduce visibility, making travel difficult.
Mountain passes may become extremely difficult to travel.

* Timing... snow will be ongoing through this evening.

* Snow accumulations... additional 2 to 4 inches, up to 6 inches
possible near mountain tops.

* Confidence... high confidence on timing and snowfall amounts.

* Locations... Stanley, Clayton, Hailey, Ketchum, Bellevue,
Galena Summit.

Precautionary/preparedness actions...

A Winter Storm Warning for heavy snow means severe winter weather
conditions are expected or occurring. Significant amounts of snow
are forecast that will make travel dangerous. If you must travel,
keep an extra flashlight, food and water in your vehicle in case
of an emergency.